Logo AVAMET
Benvolgut visitant, si us plau, ingressa Recuperar contrasenya

Xixona castell

Dades diàries. Acumulats / Últims 30 dies disponibles

Data Temperatura (°C) Humitat rel. (%) Pressió rel. (hPa) Vent (km/h) Precipitació
Mínima Mitjana Màxima Amplitud
tèrmica
Mínima Mitjana Màxima Mínima Mitjana Màxima Predom. Mitjana Ràfega
màxima
Total
(mm)
Índex-n
Mínima Mitjana Màxima Mínima Mitjana Màxima n
0 a 1
P0 max
mm 5'
Dades mensuals acumulades fins l'últim dia disponible
11/2019 4,5 9,7 18,2 12,3 10,2 15,5 22,9 18,4 0 58 82 999 1.010 1.020   23,9 112,7 9,4
Dades anuals acumulades fins l'últim dia disponible
2019 1,4 13,6 25,9 17,2 8,8 21,3 36,6 35,2 0 57 90 993 1.016 1.034   9,7 120,7 224,6
Últims 30 dies disponibles
21-11-2019 6,8     10,3     13,2 6,4 0 71 78 1.008 1.009 1.010 SSO 2,4 35,4 0,2
20-11-2019 7,1     9,6     13,1 6,0 52 65 80 1.009 1.011 1.015 NNE 7,1 35,4 1,4
19-11-2019 4,5     8,5     11,8 7,3 40 54 66 1.014 1.015 1.017 NW 13,2 49,9 0,0
18-11-2019 7,0     9,7     12,6 5,6 48 61 76 1.006 1.010 1.016 NW 14,5 54,7 5,0 0,62 1,50
17-11-2019 5,6     9,6     14,2 8,6 44 58 75 1.009 1.012 1.015 WNW 33,6 93,3 0,2
16-11-2019 5,7     8,3     11,8 6,1 44 56 66 1.006 1.011 1.015 NW 21,6 75,6 0,0
15-11-2019     8,1     10,2 10,2 49 59 67 999 1.003 1.006 WNW 26,9 77,2 0,0
14-11-2019 8,2     10,9     14,9 6,7 47 63 82 999 1.002 1.011 NW 16,4 86,9 0,2
13-11-2019 11,1     13,8     17,9 6,8 45 63 80 1.005 1.008 1.012 NW 25,9 83,7 0,6
12-11-2019 8,2     11,2     15,2 7,0 34 48 59 1.009 1.011 1.012 NW 18,5 77,2 0,0
11-11-2019 6,4     10,3     13,3 6,9 42 53 64 1.010 1.012 1.014 NW 18,8 62,8 0,0
10-11-2019 7,9     10,2     12,0 4,1 43 58 74 1.010 1.011 1.014 NW 42,5 95,0 0,0
09-11-2019 8,2     11,1     13,9 5,7 38 52 74 1.012 1.017 1.020 WNW 36,5 88,5 0,6
08-11-2019 7,5     9,9     12,2 4,7 41 54 69 1.009 1.012 1.017 NW 41,0 98,2 1,2
07-11-2019 10,9     13,6     17,8 6,9 36 57 68 1.007 1.009 1.013 WNW 25,9 77,2 0,0
06-11-2019 10,7     13,0     16,9 6,2 38 54 66 1.011 1.012 1.014 NW 27,5 72,4 0,0
05-11-2019 11,6     13,8     17,1 5,5 44 58 73 1.005 1.008 1.012 NW 27,8 93,3 0,0
04-11-2019 15,6     17,9     21,9 6,3 42 56 67 1.006 1.009 1.011 WNW 29,6 111,0 0,58 0,60
03-11-2019 15,9     18,1     20,8 4,9 48 56 65 1.001 1.004 1.010 WNW 30,1 112,7
02-11-2019 17,4     19,4     22,1 4,7 46 59 66 1.004 1.009 1.014 WNW 20,6 75,6 0,0
01-11-2019 18,2     20,5     22,9 4,7 0 60 69 1.013 1.016 1.019 WNW 22,2 96,6 0,0
31-10-2019 17,8     19,9     22,2 4,4 0 58 67 1.018 1.019 1.020 ONO 20,0 57,9 0,0
30-10-2019 16,0     18,3     20,9 4,9 64 81 1.018 1.019 1.021 NW 6,0 41,8 0,0
29-10-2019 14,8     19,8     23,7 8,9 58 70 1.014 1.016 1.018 NE 5,5 38,6 0,0
28-10-2019 12,9     14,8     18,4 5,5 61 72 80 1.016 1.018 1.020 NW 2,3 16,1 0,0
27-10-2019 12,3     14,3     18,9 6,6 75 81 1.020 1.020 1.022 NW 2,3 16,1 0,0
26-10-2019 14,6     16,5     19,9 5,3 50 64 80 1.019 1.020 1.021 NW 3,5 22,5 0,0
25-10-2019 13,8     16,0     19,7 5,9 49 59 71 1.020 1.021 1.022 NNW 4,8 35,4 0,0
24-10-2019 10,6     13,4     16,8 6,2 54 63 72 1.010 1.015 1.022 NW 21,2 66,0 0,0
23-10-2019 9,8     12,0     15,2 5,4 53 66 78 1.005 1.008 1.011 WNW 19,5 80,5 3,6
Últims 13 mesos disponibles
10/2019 9,8 15,1 19,6 18,1 13,2 22,0 30,1 20,3 41 60 75 1.008 1.015 1.021 NW 7,7 93,3 43,2
09/2019 12,4 18,0 20,9 21,2 19,5 25,1 30,4 18,0 46 66 75 1.009 1.016 1.021 NW 7,5 83,7 38,2
08/2019 17,6 20,9 25,9 24,7 25,1 29,3 36,2 18,6 31 59 72 1.009 1.014 1.018 SSE 6,4 54,7 17,4
07/2019 18,1 20,9 23,9 25,6 26,4 30,5 36,6 18,5 29 50 73 1.005 1.012 1.018 SSE 6,9 83,7 0,2
06/2019 12,8 17,3 25,8 22,0 21,3 26,3 35,4 22,6 26 50 76 1.007 1.013 1.021 SSE 7,0 72,4 2,0
05/2019 8,5 13,0 18,3 16,9 15,4 20,8 27,0 18,5 40 61 77 1.005 1.014 1.024 SSE 6,4 96,6 4,8
04/2019 6,4 9,7 12,5 13,1 12,8 17,0 24,6 18,2 36 65 84 999 1.012 1.024 SSE 13,1 103,0 87,0
03/2019 4,4 9,1 13,6 12,9 9,9 16,9 23,5 19,1 26 52 78 1.010 1.022 1.029 NW 9,6 106,2 19,8
02/2019 1,4 7,2 13,4 11,1 9,5 15,3 22,1 20,7 23 53 75 996 1.024 1.032 NW 9,4 114,3 1,4
01/2019 2,1 6,6 10,4 9,9 8,8 13,5 18,2 16,1 30 57 78 1.003 1.018 1.030 NW 13,7 120,7 1,2
12/2018 5,3 10,6 15,7 14,9 13,2 19,1 23,4 18,1 33 53 71 1.008 1.022 1.026 NW 8,9 106,2 29,6
11/2018 8,1 10,5 14,7 13,1 12,2 16,4 20,1 12,0 30 63 78 999 1.014 1.021 NW 11,2 103,0 19,6
10/2018 4,9 13,5 17,8 16,7 11,1 20,7 25,0 20,1 42 65 76 998 1.013 1.024 NW 9,0 107,8 38,2
Tots els anys disponibles
2018 1,1 13,3 24,8 16,8 5,9 20,9 33,4 32,3 30 64 82 998 1.016 1.026 NW 10,1 119,1 312,4
2017 -0,4 13,1 25,9 16,7 4,3 20,9 34,2 34,6 9,0 123,9 219,0
2016 2,6 13,2 28,0 16,5 8,9 20,5 37,3 34,7 9,7 132,0 272,6
Temperatura (°C)
Humitat relativa (%)
Velocitat del vent i ràfega màxima (km/h)
Direcció del vent (°)
Pressió (hPa)
Precipitació (mm)
Nota sobre les dades: s'avisa a l'usuari de la provisionalitat i no oficialitat d'aquestes dades
Logo AVAMET blanc
Web allotjada a Sollutia
Llicència de Creative CommonsLa web d'AVAMET i els seus continguts estan subjectes a una llicència de
Reconeixement - No Comercial - Compartir igual
Últimes estacions: Faura (Inforatge), Benifairó de les Valls (Inforatge), Xàbia - Les Valls (Soci), Xàbia - Alt de la Granadella (Soci), Villena - Sierra de Salinas (Soci), Sueca - Centre (Inforatge) - - -